Time;durP1;ratioP1;P1;durP2;ratioP2;P2;SDS_P1;SDS_P2;PMS_P1;PMS_P2;Temp;Humidity;BMP_temperature;BMP_pressure;BME280_temperature;BME280_humidity;BME280_pressure;Samples;Min_cycle;Max_cycle;Signal;HPM_P1;HPM_P2
2023/06/12 00:00:31;;;;;;;9.75;4.75;;;;;;;17.47;43.55;101375.06;4994846;28;20460;-61
2023/06/12 00:02:58;;;;;;;9.02;4.65;;;;;;;17.36;43.76;101379.94;4994752;28;20054;-62
2023/06/12 00:05:27;;;;;;;12.85;4.43;;;;;;;17.39;43.44;101373.31;4994815;28;20046;-61
2023/06/12 00:07:56;;;;;;;12.18;4.90;;;;;;;17.48;43.71;101372.19;4994494;28;20538;-62
2023/06/12 00:10:23;;;;;;;5.93;4.05;;;;;;;17.46;43.55;101379.66;4994590;28;20046;-61
2023/06/12 00:12:50;;;;;;;9.70;4.93;;;;;;;17.30;43.73;101377.09;4994695;28;20050;-61
2023/06/12 00:15:16;;;;;;;9.98;4.53;;;;;;;17.41;43.58;101376.69;4994467;28;20422;-62
2023/06/12 00:17:43;;;;;;;6.13;4.65;;;;;;;17.33;43.43;101379.44;4993708;28;20101;-61
2023/06/12 00:20:10;;;;;;;7.90;5.10;;;;;;;17.14;43.66;101375.44;4994504;28;20046;-61
2023/06/12 00:22:40;;;;;;;8.05;5.05;;;;;;;17.02;43.75;101383.19;4994842;28;20050;-61
2023/06/12 00:25:07;;;;;;;15.20;5.38;;;;;;;17.06;43.83;101378.25;4994468;28;20054;-60
2023/06/12 00:27:34;;;;;;;15.32;5.07;;;;;;;16.82;44.36;101382.94;4993495;28;20046;-61
2023/06/12 00:30:02;;;;;;;10.10;4.78;;;;;;;16.75;44.73;101379.28;4993747;28;20104;-61
2023/06/12 00:32:29;;;;;;;11.75;4.80;;;;;;;16.79;44.49;101377.03;4994051;28;20470;-60
2023/06/12 00:34:55;;;;;;;14.90;5.22;;;;;;;16.71;44.94;101377.94;4993931;28;20517;-61
2023/06/12 00:37:24;;;;;;;9.32;4.70;;;;;;;16.67;44.63;101376.63;4994076;28;20082;-60
2023/06/12 00:39:51;;;;;;;10.88;4.90;;;;;;;16.57;44.78;101384.19;4993922;28;20513;-60
2023/06/12 00:42:17;;;;;;;11.63;4.40;;;;;;;16.38;45.27;101385.50;4993182;28;20102;-59
2023/06/12 00:44:44;;;;;;;11.82;5.28;;;;;;;16.53;45.24;101388.28;4994314;28;20050;-61
2023/06/12 00:47:11;;;;;;;11.38;4.72;;;;;;;16.55;45.23;101383.53;4994402;28;20046;-61
2023/06/12 00:49:38;;;;;;;8.82;5.28;;;;;;;16.45;46.00;101385.63;4994427;28;20047;-60
2023/06/12 00:52:06;;;;;;;13.13;4.95;;;;;;;16.25;46.85;101382.56;4994223;28;20046;-60
2023/06/12 00:54:33;;;;;;;7.85;4.95;;;;;;;16.19;46.90;101378.72;4994468;28;20050;-60
2023/06/12 00:56:59;;;;;;;12.38;5.13;;;;;;;16.17;47.38;101381.63;4994114;28;20062;-60
2023/06/12 00:59:26;;;;;;;9.05;4.97;;;;;;;16.13;47.51;101383.00;4994708;28;20042;-60
2023/06/12 01:01:53;;;;;;;10.70;5.18;;;;;;;16.14;47.89;101390.09;4993996;28;20074;-60
2023/06/12 01:04:19;;;;;;;15.40;5.53;;;;;;;16.00;48.06;101395.44;4994159;28;20602;-60
2023/06/12 01:07:28;;;;;;;8.82;4.80;;;;;;;15.94;47.89;101394.28;4993719;28;20130;-62
2023/06/12 01:09:54;;;;;;;10.73;5.22;;;;;;;15.88;47.91;101385.06;4992857;28;20085;-62
2023/06/12 01:12:22;;;;;;;13.07;4.60;;;;;;;15.85;47.77;101390.81;4992518;28;20050;-61
2023/06/12 01:14:48;;;;;;;9.05;4.65;;;;;;;15.60;48.36;101387.34;4993346;28;20101;-61
2023/06/12 01:17:16;;;;;;;10.50;5.05;;;;;;;15.73;48.18;101392.22;4993918;28;20038;-61
2023/06/12 01:19:43;;;;;;;12.02;4.90;;;;;;;15.55;48.14;101397.88;4993447;28;20047;-62
2023/06/12 01:22:12;;;;;;;9.68;4.90;;;;;;;15.42;48.22;101389.47;4993267;28;20418;-62
2023/06/12 01:24:53;;;;;;;12.65;4.72;;;;;;;15.43;48.01;101389.31;4993172;28;20100;-64
2023/06/12 01:28:04;;;;;;;11.77;4.78;;;;;;;15.33;47.99;101390.53;4993067;28;20050;-60
2023/06/12 01:31:06;;;;;;;10.02;4.43;;;;;;;15.39;47.50;101387.13;4987896;28;20074;-61
2023/06/12 01:33:37;;;;;;;11.02;4.82;;;;;;;15.46;47.22;101390.81;4984353;28;20042;-61
2023/06/12 01:36:07;;;;;;;;;;;;;;;15.36;47.12;101385.63;4993670;28;20086;-61
2023/06/12 01:38:35;;;;;;;8.68;4.38;;;;;;;15.31;46.97;101389.88;4993538;28;19929;-61
2023/06/12 01:41:05;;;;;;;11.07;4.72;;;;;;;15.19;46.98;101387.56;4993156;28;20039;-61
2023/06/12 01:43:31;;;;;;;11.65;4.45;;;;;;;15.20;46.80;101386.53;4993218;28;20117;-62
2023/06/12 01:45:58;;;;;;;7.75;4.38;;;;;;;15.22;46.79;101387.22;4992766;28;20050;-63
2023/06/12 01:48:24;;;;;;;11.07;4.63;;;;;;;15.09;46.84;101386.91;4993203;28;20093;-61
2023/06/12 01:50:51;;;;;;;12.07;4.60;;;;;;;15.07;46.76;101394.34;4993709;28;20121;-61
2023/06/12 01:53:17;;;;;;;11.02;4.43;;;;;;;15.21;46.51;101390.06;4993146;28;20446;-60
2023/06/12 01:55:44;;;;;;;7.90;4.28;;;;;;;15.18;46.23;101385.84;4993141;28;20498;-62
2023/06/12 01:58:11;;;;;;;8.32;4.63;;;;;;;15.13;46.50;101385.53;4992971;28;20044;-61
2023/06/12 02:00:38;;;;;;;9.40;4.47;;;;;;;15.17;46.28;101384.19;4993430;28;20046;-63
2023/06/12 02:03:04;;;;;;;9.60;4.68;;;;;;;15.08;46.31;101398.72;4993205;28;20043;-61
2023/06/12 02:05:31;;;;;;;10.23;4.38;;;;;;;15.08;46.33;101395.19;4993352;28;20046;-61
2023/06/12 02:07:57;;;;;;;10.25;4.15;;;;;;;15.08;45.73;101392.47;4992616;28;20054;-62
2023/06/12 02:10:24;;;;;;;9.75;3.88;;;;;;;14.91;46.18;101388.97;4992761;28;20085;-61
2023/06/12 02:12:51;;;;;;;12.82;4.13;;;;;;;14.85;46.15;101389.69;4992860;28;20054;-61
2023/06/12 02:15:18;;;;;;;9.82;4.63;;;;;;;15.03;45.89;101387.59;4991814;28;20070;-61
2023/06/12 02:17:45;;;;;;;9.65;3.80;;;;;;;14.92;45.62;101387.97;4992776;28;20080;-62
2023/06/12 02:20:12;;;;;;;7.22;3.72;;;;;;;14.98;45.84;101384.56;4992261;28;20101;-62
2023/06/12 02:22:39;;;;;;;10.05;4.15;;;;;;;14.90;46.00;101382.72;4993071;28;20046;-61
2023/06/12 02:25:06;;;;;;;10.35;4.78;;;;;;;14.68;45.75;101386.97;4992591;28;20042;-60
2023/06/12 02:27:33;;;;;;;16.20;4.22;;;;;;;14.75;45.84;101379.91;4991958;28;20097;-61
2023/06/12 02:30:00;;;;;;;6.75;4.43;;;;;;;14.76;45.89;101394.25;4992401;28;20050;-61
2023/06/12 02:32:27;;;;;;;7.65;4.68;;;;;;;14.74;45.87;101391.72;4991058;28;20402;-61
2023/06/12 02:34:54;;;;;;;12.98;4.03;;;;;;;14.64;45.95;101385.63;4991247;28;20050;-61
2023/06/12 02:37:21;;;;;;;8.63;3.90;;;;;;;14.68;45.70;101395.06;4991592;28;20092;-60
2023/06/12 02:39:47;;;;;;;11.90;4.00;;;;;;;14.52;45.66;101392.38;4991204;28;20054;-61
2023/06/12 02:42:14;;;;;;;9.50;4.10;;;;;;;14.48;45.84;101389.19;4991255;28;20050;-61
2023/06/12 02:44:41;;;;;;;12.15;4.22;;;;;;;14.41;45.52;101400.84;4991414;28;20050;-61
2023/06/12 02:47:07;;;;;;;6.70;4.35;;;;;;;14.40;45.65;101399.16;4992215;28;20054;-60
2023/06/12 02:49:35;;;;;;;11.13;4.50;;;;;;;14.28;45.84;101401.31;4991698;28;20463;-61
2023/06/12 02:52:02;;;;;;;8.85;4.20;;;;;;;14.27;45.73;101413.97;4991894;28;20053;-61
2023/06/12 02:54:28;;;;;;;10.05;4.03;;;;;;;14.19;46.04;101402.34;4990962;28;20066;-61
2023/06/12 02:56:55;;;;;;;10.15;3.97;;;;;;;14.18;46.36;101403.34;4991139;28;20494;-61
2023/06/12 02:59:23;;;;;;;8.88;4.63;;;;;;;14.23;46.59;101407.25;4991974;28;20054;-60
2023/06/12 03:01:50;;;;;;;12.27;5.10;;;;;;;14.08;46.70;101405.34;4991253;28;20050;-61
2023/06/12 03:04:19;;;;;;;11.65;3.88;;;;;;;14.09;46.69;101407.91;4991174;28;20069;-60
2023/06/12 03:06:53;;;;;;;9.73;4.82;;;;;;;14.12;46.97;101410.28;4991534;28;20046;-60
2023/06/12 03:09:20;;;;;;;9.38;4.45;;;;;;;14.06;47.23;101419.03;4991410;28;20422;-61
2023/06/12 03:11:48;;;;;;;11.35;4.55;;;;;;;14.13;47.22;101414.66;4991273;28;20109;-60
2023/06/12 03:14:16;;;;;;;10.45;4.18;;;;;;;14.04;47.56;101411.06;4991325;28;20096;-60
2023/06/12 03:16:42;;;;;;;8.48;4.15;;;;;;;14.11;47.49;101410.41;4991381;28;20092;-60
2023/06/12 03:19:09;;;;;;;8.40;4.25;;;;;;;14.12;47.49;101418.38;4992393;28;20077;-59
2023/06/12 03:21:36;;;;;;;11.65;4.20;;;;;;;14.15;47.39;101422.56;4991573;28;20483;-61
2023/06/12 03:24:03;;;;;;;9.45;4.00;;;;;;;14.14;47.35;101413.63;4974111;28;20042;-60
2023/06/12 03:26:31;;;;;;;13.77;4.38;;;;;;;13.89;48.13;101417.31;4990714;28;20051;-61
2023/06/12 03:28:58;;;;;;;9.63;3.80;;;;;;;14.01;48.09;101426.75;4989974;28;20054;-62
2023/06/12 03:31:26;;;;;;;14.98;4.35;;;;;;;14.17;47.80;101420.56;4991429;28;20061;-60
2023/06/12 03:33:54;;;;;;;13.13;3.85;;;;;;;14.11;48.02;101416.66;4991178;28;20058;-61
2023/06/12 03:36:23;;;;;;;6.18;4.10;;;;;;;14.11;47.77;101421.22;4991180;28;20494;-61
2023/06/12 03:38:50;;;;;;;7.40;4.45;;;;;;;14.05;47.83;101425.44;4990575;28;20136;-61
2023/06/12 03:41:20;;;;;;;9.63;4.45;;;;;;;13.95;48.06;101422.03;4991006;28;20100;-60
2023/06/12 03:43:47;;;;;;;10.60;5.20;;;;;;;14.11;47.83;101426.59;4990964;28;20085;-61
2023/06/12 03:46:14;;;;;;;8.38;4.35;;;;;;;13.96;47.94;101426.41;4990654;28;20042;-61
2023/06/12 03:48:40;;;;;;;12.07;4.28;;;;;;;13.76;48.16;101424.00;4990854;28;20046;-61
2023/06/12 03:51:07;;;;;;;10.60;5.00;;;;;;;14.00;47.90;101431.31;4991246;28;20054;-61
2023/06/12 03:53:34;;;;;;;9.07;4.15;;;;;;;13.89;47.98;101428.09;4990738;28;20126;-61
2023/06/12 03:56:01;;;;;;;6.28;3.92;;;;;;;13.94;47.93;101423.91;4990124;28;20077;-62
2023/06/12 03:58:28;;;;;;;12.65;4.60;;;;;;;13.90;48.04;101424.38;4990651;28;20054;-62
2023/06/12 04:00:54;;;;;;;8.75;4.65;;;;;;;13.92;48.05;101423.22;4990610;28;20054;-62
2023/06/12 04:03:21;;;;;;;18.75;5.82;;;;;;;14.08;47.68;101422.41;4991021;28;20062;-59
2023/06/12 04:05:48;;;;;;;12.98;4.15;;;;;;;13.95;47.45;101430.13;4989857;28;20046;-60
2023/06/12 04:08:15;;;;;;;11.10;4.50;;;;;;;14.14;47.36;101429.81;4990704;28;20057;-61
2023/06/12 04:10:42;;;;;;;11.52;4.22;;;;;;;14.06;47.25;101427.97;4990199;28;20046;-61
2023/06/12 04:13:10;;;;;;;8.50;4.18;;;;;;;14.19;47.14;101432.03;4991333;28;20097;-60
2023/06/12 04:15:38;;;;;;;15.27;3.60;;;;;;;14.04;47.19;101427.25;4990992;28;20038;-60
2023/06/12 04:18:06;;;;;;;16.08;4.22;;;;;;;14.10;47.25;101430.31;4990536;28;20050;-61
2023/06/12 04:20:33;;;;;;;9.50;4.32;;;;;;;14.34;46.89;101430.34;4990728;28;20482;-61
2023/06/12 04:23:04;;;;;;;12.75;3.88;;;;;;;14.15;46.70;101431.53;4990324;28;21771;-61
2023/06/12 04:25:32;;;;;;;;;;;;;;;14.21;46.91;101433.53;4990869;28;20133;-61
2023/06/12 04:27:59;;;;;;;16.25;4.32;;;;;;;14.33;46.48;101435.94;4999052;28;19922;-62
2023/06/12 04:30:26;;;;;;;11.88;4.18;;;;;;;14.17;46.53;101431.34;5010309;28;20046;-61
2023/06/12 04:32:56;;;;;;;11.20;3.90;;;;;;;14.06;46.57;101429.81;5010318;28;20081;-61
2023/06/12 04:35:23;;;;;;;9.00;3.80;;;;;;;14.08;46.00;101433.19;5005774;28;20409;-61
2023/06/12 04:37:52;;;;;;;10.93;4.50;;;;;;;14.14;46.42;101424.41;4990847;28;20104;-61
2023/06/12 04:40:20;;;;;;;9.80;4.22;;;;;;;14.46;46.29;101436.25;4990081;28;20132;-61
2023/06/12 04:42:46;;;;;;;6.75;3.85;;;;;;;14.40;46.15;101427.00;4992710;28;20112;-62
2023/06/12 04:45:13;;;;;;;8.20;3.60;;;;;;;14.38;46.33;101428.16;4994120;28;20129;-61
2023/06/12 04:47:40;;;;;;;10.18;4.18;;;;;;;14.44;46.05;101433.72;4994681;28;20043;-62
2023/06/12 04:50:09;;;;;;;10.70;4.22;;;;;;;14.48;46.22;101440.47;4993702;28;20062;-61
2023/06/12 04:52:39;;;;;;;7.18;3.55;;;;;;;14.49;45.84;101452.94;4994493;28;20046;-61
2023/06/12 04:55:08;;;;;;;8.05;4.15;;;;;;;14.55;46.09;101451.44;4994372;28;20043;-61
2023/06/12 04:57:36;;;;;;;11.35;4.22;;;;;;;14.66;45.68;101448.41;4994460;28;20413;-61
2023/06/12 05:00:06;;;;;;;16.77;4.22;;;;;;;14.53;46.26;101448.94;4993916;28;20046;-61
2023/06/12 05:02:35;;;;;;;10.20;3.70;;;;;;;14.70;45.85;101440.81;4993574;28;20076;-61
2023/06/12 05:05:02;;;;;;;17.58;3.85;;;;;;;14.64;46.28;101445.06;4993123;28;20046;-61
2023/06/12 05:07:28;;;;;;;7.55;4.53;;;;;;;14.93;46.16;101443.69;4992697;28;20081;-61
2023/06/12 05:09:55;;;;;;;13.68;4.40;;;;;;;14.80;45.82;101451.47;4993458;28;20058;-63
2023/06/12 05:12:22;;;;;;;9.65;4.07;;;;;;;14.81;45.50;101445.91;4993718;28;20597;-61
2023/06/12 05:14:48;;;;;;;8.30;4.00;;;;;;;14.89;45.46;101447.75;4992666;28;20050;-62
2023/06/12 05:17:15;;;;;;;6.13;3.55;;;;;;;15.01;45.37;101436.41;4992915;28;20553;-62
2023/06/12 05:19:43;;;;;;;12.40;4.28;;;;;;;14.92;45.28;101439.31;4992885;28;20058;-63
2023/06/12 05:22:10;;;;;;;14.82;3.92;;;;;;;15.06;45.12;101444.00;4993630;28;20050;-62
2023/06/12 05:24:36;;;;;;;8.82;4.38;;;;;;;14.95;45.12;101441.69;4993173;28;20046;-62
2023/06/12 05:27:04;;;;;;;7.63;3.33;;;;;;;14.93;44.79;101443.69;4995786;28;20057;-61
2023/06/12 05:29:30;;;;;;;8.52;3.70;;;;;;;15.10;45.27;101441.81;5012662;28;20057;-62
2023/06/12 05:31:57;;;;;;;10.23;4.60;;;;;;;15.25;44.80;101446.31;5012772;28;20048;-63
2023/06/12 05:34:23;;;;;;;17.13;4.10;;;;;;;15.23;44.73;101440.25;5013248;28;20104;-61
2023/06/12 05:36:50;;;;;;;7.88;3.92;;;;;;;15.01;44.66;101436.41;4997198;28;20076;-61
2023/06/12 05:39:17;;;;;;;6.80;3.63;;;;;;;15.40;45.21;101434.78;4993176;28;20038;-61
2023/06/12 05:41:43;;;;;;;7.25;4.05;;;;;;;15.58;44.92;101446.22;4993457;28;20046;-61
2023/06/12 05:44:10;;;;;;;7.47;4.05;;;;;;;15.46;45.01;101445.72;4993221;28;20050;-61
2023/06/12 05:46:36;;;;;;;11.30;4.03;;;;;;;15.61;44.64;101440.44;4992713;28;20046;-60
2023/06/12 05:49:03;;;;;;;10.80;4.07;;;;;;;15.69;44.52;101451.25;4992759;28;20057;-61
2023/06/12 05:51:29;;;;;;;20.67;4.80;;;;;;;15.90;43.96;101447.09;4993161;28;20051;-60
2023/06/12 05:53:56;;;;;;;10.70;4.07;;;;;;;15.91;44.51;101451.47;4991583;28;20105;-61
2023/06/12 05:56:23;;;;;;;19.60;4.80;;;;;;;15.95;44.13;101453.66;4993044;28;20054;-62
2023/06/12 05:58:50;;;;;;;16.50;4.20;;;;;;;15.75;44.43;101447.00;4992734;28;20070;-61
2023/06/12 06:01:21;;;;;;;15.38;4.85;;;;;;;15.85;44.94;101454.91;4992825;28;20081;-60
2023/06/12 06:03:48;;;;;;;13.07;4.57;;;;;;;15.88;44.76;101460.81;4974772;28;20050;-61
2023/06/12 06:06:16;;;;;;;13.20;4.03;;;;;;;15.77;44.83;101452.22;4991944;28;20489;-65
2023/06/12 06:08:43;;;;;;;11.73;3.70;;;;;;;15.75;44.70;101457.00;4992868;28;20105;-64
2023/06/12 06:11:10;;;;;;;21.23;4.53;;;;;;;15.86;44.78;101456.59;4993169;28;20437;-63
2023/06/12 06:13:36;;;;;;;22.33;3.95;;;;;;;15.95;44.88;101453.66;4992898;28;20046;-63
2023/06/12 06:16:04;;;;;;;11.52;3.92;;;;;;;16.08;44.19;101455.78;4992337;28;20062;-65
2023/06/12 06:18:35;;;;;;;12.70;4.30;;;;;;;16.13;44.64;101455.25;4991600;28;20406;-63
2023/06/12 07:29:28;;;;;;;;;;;;;;;19.95;40.05;101477.28;4937180;28;20048;-64
2023/06/12 07:31:54;;;;;;;14.60;4.15;;;;;;;20.52;38.67;101477.00;4971070;28;20297;-64
2023/06/12 07:34:21;;;;;;;11.45;3.92;;;;;;;21.03;37.54;101470.94;4970353;28;20042;-64
2023/06/12 07:36:48;;;;;;;17.40;4.10;;;;;;;21.38;36.87;101474.25;4970252;28;20046;-64
2023/06/12 07:39:14;;;;;;;10.25;4.40;;;;;;;21.67;35.59;101472.91;4970200;28;20047;-64
2023/06/12 07:41:42;;;;;;;10.77;4.00;;;;;;;22.24;35.43;101473.91;4971359;28;20060;-68
2023/06/12 07:44:12;;;;;;;12.98;4.25;;;;;;;21.56;35.80;101471.69;4971447;28;20054;-64
2023/06/12 07:46:41;;;;;;;8.77;4.07;;;;;;;21.40;35.50;101472.16;4970017;28;20046;-63
2023/06/12 07:49:08;;;;;;;7.53;4.03;;;;;;;20.97;34.36;101469.03;4970582;28;20042;-64
2023/06/12 07:51:36;;;;;;;13.18;4.38;;;;;;;21.47;34.48;101469.41;4969193;28;20046;-62
2023/06/12 07:54:03;;;;;;;11.07;3.83;;;;;;;21.33;33.77;101463.16;4969899;28;20057;-63
2023/06/12 07:56:32;;;;;;;9.98;4.03;;;;;;;21.53;34.51;101463.09;4970817;28;20042;-64
2023/06/12 07:59:10;;;;;;;11.48;3.72;;;;;;;22.01;33.65;101449.03;4970682;28;20054;-65
2023/06/12 08:01:37;;;;;;;9.02;3.53;;;;;;;22.21;31.90;101457.09;4970955;28;20137;-63
2023/06/12 08:04:09;;;;;;;8.32;3.40;;;;;;;22.23;32.32;101465.94;4970310;28;20164;-62
2023/06/12 08:06:37;;;;;;;10.38;3.88;;;;;;;21.82;31.06;101467.19;4971043;28;20411;-62
2023/06/12 08:09:05;;;;;;;8.55;4.03;;;;;;;22.49;30.59;101465.75;4970623;28;20110;-65
2023/06/12 08:11:31;;;;;;;6.30;3.35;;;;;;;22.16;28.44;101462.41;4971218;28;20055;-63
2023/06/12 08:13:58;;;;;;;9.90;3.10;;;;;;;21.83;30.27;101458.78;4970503;28;20146;-66
2023/06/12 08:16:25;;;;;;;7.22;3.15;;;;;;;22.25;29.74;101448.25;4970868;28;20101;-65
2023/06/12 08:18:52;;;;;;;6.10;3.20;;;;;;;21.99;29.87;101453.88;4973975;28;20051;-63
2023/06/12 08:21:19;;;;;;;6.55;3.00;;;;;;;22.30;30.68;101450.34;4973740;28;20414;-62
2023/06/12 08:23:45;;;;;;;7.63;3.45;;;;;;;21.67;31.98;101445.59;4974954;28;20089;-62
2023/06/12 08:26:12;;;;;;;6.47;3.33;;;;;;;21.80;31.07;101450.19;4972803;28;20053;-61
2023/06/12 08:28:38;;;;;;;8.27;3.45;;;;;;;22.07;30.60;101446.25;4991461;28;20104;-64
2023/06/12 08:31:05;;;;;;;6.03;3.38;;;;;;;22.95;29.43;101441.84;4993864;28;20046;-62
2023/06/12 08:33:32;;;;;;;5.28;2.90;;;;;;;23.23;29.31;101439.47;4994383;28;20133;-65
2023/06/12 08:36:00;;;;;;;15.00;3.15;;;;;;;23.21;28.33;101441.59;4994490;28;20399;-71
2023/06/12 08:38:27;;;;;;;4.50;2.85;;;;;;;23.69;27.61;101431.75;4992884;28;20046;-66
2023/06/12 08:41:02;;;;;;;5.40;3.13;;;;;;;24.37;27.62;101438.81;4993206;28;20054;-69
2023/06/12 08:43:30;;;;;;;8.10;2.90;;;;;;;24.47;27.21;101430.88;4993175;28;20661;-68
2023/06/12 08:46:00;;;;;;;5.30;3.55;;;;;;;24.03;27.50;101426.69;4993613;28;20058;-68
2023/06/12 08:48:28;;;;;;;10.55;3.47;;;;;;;23.40;28.08;101423.28;4994035;28;20054;-68
2023/06/12 08:50:54;;;;;;;6.07;3.25;;;;;;;23.13;28.56;101427.38;4993912;28;20085;-69
2023/06/12 08:53:22;;;;;;;6.65;3.40;;;;;;;22.43;29.22;101442.03;4993486;28;20133;-67
2023/06/12 08:55:50;;;;;;;6.30;3.45;;;;;;;21.93;29.81;101436.47;4993103;28;20463;-69
2023/06/12 08:58:17;;;;;;;8.52;3.47;;;;;;;22.13;29.93;101439.09;4993378;28;20719;-68
2023/06/12 09:00:44;;;;;;;12.45;3.83;;;;;;;22.00;29.87;101439.16;4992885;28;20065;-68
2023/06/12 09:03:11;;;;;;;8.90;3.97;;;;;;;22.80;29.53;101434.78;4993778;28;20047;-68
2023/06/12 09:05:38;;;;;;;11.23;4.75;;;;;;;23.04;28.66;101430.34;4993270;28;20047;-69
2023/06/12 09:08:06;;;;;;;6.30;3.78;;;;;;;22.68;29.38;101431.13;4993303;28;20046;-67
2023/06/12 09:10:33;;;;;;;7.60;3.85;;;;;;;22.63;29.66;101416.44;4993409;28;20150;-69
2023/06/12 09:13:06;;;;;;;6.40;3.80;;;;;;;23.10;29.55;101414.94;4992675;28;20078;-69
2023/06/12 09:15:33;;;;;;;7.75;3.83;;;;;;;22.52;29.70;101420.75;4993359;28;20046;-65
2023/06/12 09:18:00;;;;;;;9.27;3.50;;;;;;;22.10;30.53;101417.66;4991890;28;20426;-68
2023/06/12 09:20:32;;;;;;;9.25;3.50;;;;;;;22.84;29.85;101421.50;4992700;28;20050;-68
2023/06/12 09:23:11;;;;;;;7.32;3.95;;;;;;;22.55;30.21;101423.03;4993438;28;20471;-68
2023/06/12 09:25:40;;;;;;;8.57;3.85;;;;;;;22.61;30.33;101430.34;4992833;28;20553;-65
2023/06/12 09:28:09;;;;;;;7.35;3.85;;;;;;;22.89;29.62;101415.38;4995933;28;20073;-68
2023/06/12 09:30:39;;;;;;;15.18;4.15;;;;;;;23.65;29.43;101422.34;5012621;28;20124;-69
2023/06/12 09:33:07;;;;;;;6.40;3.28;;;;;;;24.75;28.81;101423.88;5011263;28;20045;-70
2023/06/12 09:35:53;;;;;;;7.53;3.45;;;;;;;26.33;26.88;101407.94;5007192;28;20042;-70
2023/06/12 09:38:33;;;;;;;11.50;4.22;;;;;;;27.12;25.91;101420.75;4991037;28;20077;-68
2023/06/12 09:41:03;;;;;;;11.00;4.03;;;;;;;27.85;25.00;101408.44;4992141;28;20054;-69
2023/06/12 09:43:31;;;;;;;7.18;2.95;;;;;;;27.74;25.12;101414.94;4992266;28;20046;-67
2023/06/12 09:46:03;;;;;;;6.03;3.13;;;;;;;26.75;25.08;101405.63;4991012;28;20058;-68
2023/06/12 09:48:54;;;;;;;9.40;3.10;;;;;;;26.59;25.32;101411.09;4990495;28;20494;-67
2023/06/12 09:51:23;;;;;;;10.93;3.10;;;;;;;26.23;25.90;101413.28;4991007;28;20051;-70
2023/06/12 11:04:36;;;;;;;12.30;3.47;;;;;;;21.65;35.40;101375.88;4971700;28;20085;-68
2023/06/12 11:07:04;;;;;;;4.80;3.50;;;;;;;22.11;33.95;101367.41;4971563;28;20062;-66
2023/06/12 11:09:40;;;;;;;7.68;3.50;;;;;;;22.35;33.01;101364.91;4971557;28;20046;-67
2023/06/12 11:12:07;;;;;;;6.65;4.15;;;;;;;22.15;33.85;101355.00;4971649;28;20042;-65
2023/06/12 11:14:34;;;;;;;8.70;3.90;;;;;;;22.37;33.37;101358.19;4969934;28;20058;-68
2023/06/12 11:17:01;;;;;;;24.67;4.25;;;;;;;22.48;33.71;101359.38;4970148;28;20065;-67
2023/06/12 11:19:28;;;;;;;7.95;4.05;;;;;;;22.80;33.38;101358.19;4970856;28;20046;-67
2023/06/12 11:21:55;;;;;;;12.02;4.68;;;;;;;23.08;31.99;101354.09;4969946;28;20463;-67
2023/06/12 11:24:23;;;;;;;8.88;3.88;;;;;;;23.58;31.38;101348.47;4971005;28;20066;-68
2023/06/12 11:26:50;;;;;;;10.50;3.80;;;;;;;23.58;31.09;101340.25;4961671;28;20051;-66
2023/06/12 11:29:25;;;;;;;7.30;3.50;;;;;;;23.43;31.00;101340.66;4951054;29;20361;-69
2023/06/12 11:32:04;;;;;;;7.00;3.90;;;;;;;22.90;32.01;101334.97;4943587;29;20047;-67
2023/06/12 11:34:34;;;;;;;10.02;3.55;;;;;;;23.31;31.45;101337.03;4951118;29;20114;-68
2023/06/12 11:37:16;;;;;;;5.90;3.60;;;;;;;23.61;31.44;101337.06;4959706;28;20427;-68
2023/06/12 11:39:43;;;;;;;6.63;4.13;;;;;;;23.95;30.81;101342.88;4964103;28;20055;-67
2023/06/12 11:42:13;;;;;;;10.20;3.67;;;;;;;24.20;30.58;101335.31;4970702;28;20066;-70
2023/06/12 11:44:40;;;;;;;14.52;4.00;;;;;;;24.34;30.86;101322.22;4970953;28;20160;-69
2023/06/12 11:47:07;;;;;;;7.57;3.65;;;;;;;23.32;31.90;101329.66;4970228;28;20126;-65
2023/06/12 11:49:37;;;;;;;5.47;3.33;;;;;;;22.70;33.31;101329.69;4970704;28;20605;-68
2023/06/12 11:52:06;;;;;;;7.18;4.03;;;;;;;22.18;33.72;101326.38;4968898;28;20380;-68
2023/06/12 11:54:55;;;;;;;6.28;4.10;;;;;;;21.79;34.03;101328.31;4970824;28;20051;-66
2023/06/12 11:57:28;;;;;;;10.38;3.83;;;;;;;21.76;34.03;101323.28;4969167;28;20046;-66
2023/06/12 11:59:58;;;;;;;7.97;3.97;;;;;;;21.70;33.94;101319.56;4969808;28;20054;-69
2023/06/12 12:02:38;;;;;;;6.43;3.90;;;;;;;21.94;33.44;101328.03;4972878;28;20058;-69
2023/06/12 12:05:13;;;;;;;13.38;3.72;;;;;;;21.74;34.26;101317.22;4988798;28;20048;-68
2023/06/12 12:07:41;;;;;;;6.13;4.07;;;;;;;21.95;34.10;101322.34;4988238;28;20505;-68
2023/06/12 12:10:12;;;;;;;11.43;3.92;;;;;;;22.37;34.02;101321.81;4990168;28;20131;-68
2023/06/12 12:12:48;;;;;;;16.90;4.25;;;;;;;22.63;34.09;101313.34;4971082;28;20074;-68
2023/06/12 12:15:17;;;;;;;8.65;4.57;;;;;;;22.68;32.28;101321.72;4989578;28;20047;-69
2023/06/12 12:17:45;;;;;;;7.05;3.80;;;;;;;22.79;32.88;101317.41;4989788;28;20057;-69
2023/06/12 12:20:23;;;;;;;11.55;3.92;;;;;;;22.99;32.81;101312.53;4973306;28;20074;-69
2023/06/12 12:22:55;;;;;;;7.97;4.30;;;;;;;22.81;32.92;101298.88;4989426;28;20121;-68
2023/06/12 12:25:24;;;;;;;16.10;4.18;;;;;;;23.11;32.79;101296.19;4988581;28;20528;-67
2023/06/12 12:27:52;;;;;;;5.75;3.45;;;;;;;22.86;32.31;101306.41;4991629;28;20074;-65
2023/06/12 12:30:21;;;;;;;14.05;4.22;;;;;;;21.92;32.72;101308.31;5009763;28;20049;-67
2023/06/12 12:32:52;;;;;;;7.57;4.03;;;;;;;21.81;33.39;101301.66;5009518;28;20054;-68
2023/06/12 12:35:20;;;;;;;9.77;3.95;;;;;;;21.82;33.36;101301.44;5004224;28;20771;-68
2023/06/12 12:37:48;;;;;;;7.13;3.70;;;;;;;22.06;33.04;101293.47;4990195;28;20051;-69
2023/06/12 12:40:16;;;;;;;6.25;3.42;;;;;;;22.01;33.18;101277.75;4989598;28;20050;-68
2023/06/12 12:42:45;;;;;;;6.75;3.55;;;;;;;21.77;33.51;101284.84;4990506;28;20105;-70
2023/06/12 12:45:15;;;;;;;7.53;3.80;;;;;;;21.54;33.14;101274.50;4990914;28;20054;-69
2023/06/12 12:47:49;;;;;;;11.85;3.75;;;;;;;21.61;33.69;101278.00;4989534;28;20046;-69
2023/06/12 12:50:18;;;;;;;7.13;4.00;;;;;;;21.27;33.42;101281.16;4987601;28;20047;-66
2023/06/12 12:52:48;;;;;;;17.17;4.32;;;;;;;21.48;33.11;101285.44;4989430;28;20060;-66
2023/06/12 12:55:16;;;;;;;8.02;3.80;;;;;;;21.15;33.17;101275.56;4990127;28;20093;-68
2023/06/12 12:57:43;;;;;;;11.73;3.72;;;;;;;21.11;33.31;101283.34;4989755;28;20061;-67
2023/06/12 13:00:12;;;;;;;9.88;3.83;;;;;;;21.14;33.35;101282.03;4990163;28;20471;-67
2023/06/12 13:02:41;;;;;;;9.65;3.90;;;;;;;21.44;32.79;101270.56;4990322;28;20387;-69
2023/06/12 13:05:10;;;;;;;14.68;4.00;;;;;;;21.64;32.15;101265.00;4993642;28;20050;-68
2023/06/12 13:07:38;;;;;;;10.43;3.75;;;;;;;21.52;33.00;101267.56;4992629;28;20503;-65
2023/06/12 13:10:10;;;;;;;8.88;3.97;;;;;;;21.80;32.33;101265.28;4992868;28;20050;-69
2023/06/12 13:12:39;;;;;;;9.02;3.88;;;;;;;21.84;31.93;101269.28;4993889;28;20065;-69
2023/06/12 13:15:08;;;;;;;11.38;3.63;;;;;;;21.93;32.11;101256.16;4992701;28;20112;-69
2023/06/12 13:17:34;;;;;;;11.77;4.00;;;;;;;21.89;32.99;101265.03;4993010;28;20046;-69
2023/06/12 13:20:01;;;;;;;7.70;4.03;;;;;;;21.85;32.46;101262.75;4992577;28;20056;-68
2023/06/12 13:22:28;;;;;;;13.23;3.85;;;;;;;22.00;32.47;101259.69;4992250;28;20050;-69
2023/06/12 13:24:54;;;;;;;6.75;3.83;;;;;;;21.74;32.17;101259.88;4992618;28;20043;-68
2023/06/12 13:27:21;;;;;;;9.75;4.00;;;;;;;21.87;31.87;101258.94;4975093;28;20066;-68
2023/06/12 13:29:48;;;;;;;7.15;3.53;;;;;;;21.97;32.04;101259.28;4992038;28;20057;-68
2023/06/12 13:32:15;;;;;;;10.85;3.70;;;;;;;21.89;31.83;101254.13;4992496;28;20445;-69
2023/06/12 13:34:41;;;;;;;5.82;3.90;;;;;;;21.75;32.03;101256.06;4993514;28;20097;-68
2023/06/12 13:37:08;;;;;;;9.00;3.42;;;;;;;21.53;32.28;101247.44;4975496;28;20054;-69
2023/06/12 13:39:34;;;;;;;6.53;3.72;;;;;;;21.68;31.82;101247.94;4972525;28;20069;-68
2023/06/12 13:42:01;;;;;;;6.45;3.65;;;;;;;21.68;32.15;101245.19;4972493;28;20101;-68
2023/06/12 13:44:28;;;;;;;7.82;3.40;;;;;;;21.57;31.96;101251.38;4972643;28;20093;-67
2023/06/12 13:46:56;;;;;;;8.82;3.50;;;;;;;21.56;31.52;101241.50;4972700;28;20082;-69